createdAt,value
2019-03-21T00:02:24.848Z,42.90
2019-03-21T00:04:54.600Z,43.30
2019-03-21T00:07:23.983Z,43.50
2019-03-21T00:10:19.599Z,43.80
2019-03-21T00:12:48.987Z,44.00
2019-03-21T00:15:24.414Z,44.20
2019-03-21T00:17:56.607Z,44.60
2019-03-21T00:20:26.072Z,44.90
2019-03-21T00:22:57.078Z,45.30
2019-03-21T00:25:26.670Z,45.40
2019-03-21T00:27:56.054Z,45.80
2019-03-21T00:30:27.868Z,45.80
2019-03-21T00:32:57.650Z,45.90
2019-03-21T00:35:27.238Z,46.10
2019-03-21T00:37:56.719Z,46.00
2019-03-21T00:40:32.160Z,46.30
2019-03-21T00:43:03.852Z,46.60
2019-03-21T00:45:33.259Z,46.70
2019-03-21T00:48:04.241Z,47.10
2019-03-21T00:50:33.715Z,46.80
2019-03-21T00:53:03.212Z,46.70
2019-03-21T00:55:35.923Z,46.90
2019-03-21T00:58:05.380Z,46.90
2019-03-21T01:00:40.775Z,47.50
2019-03-21T01:03:11.564Z,47.30
2019-03-21T01:05:40.939Z,47.70
2019-03-21T01:08:10.416Z,48.30
2019-03-21T01:10:39.722Z,48.10
2019-03-21T01:13:09.051Z,47.90
2019-03-21T01:15:38.430Z,47.50
2019-03-21T01:18:07.824Z,47.50
2019-03-21T01:20:37.260Z,47.50
2019-03-21T01:23:06.640Z,47.60
2019-03-21T01:25:43.007Z,47.00
2019-03-21T01:28:13.405Z,47.00
2019-03-21T01:30:42.774Z,46.80
2019-03-21T01:33:12.082Z,46.80
2019-03-21T01:35:42.119Z,46.50
2019-03-21T01:38:13.063Z,45.90
2019-03-21T01:40:51.760Z,45.80
2019-03-21T01:43:21.832Z,45.40
2019-03-21T01:45:51.159Z,45.10
2019-03-21T01:48:20.548Z,44.70
2019-03-21T01:50:49.933Z,44.90
2019-03-21T01:53:19.314Z,45.10
2019-03-21T01:55:48.706Z,45.10
2019-03-21T01:58:18.025Z,44.80
2019-03-21T02:00:53.171Z,44.60
2019-03-21T02:03:22.556Z,44.80
2019-03-21T02:05:52.935Z,44.20
2019-03-21T02:08:22.402Z,44.30
2019-03-21T02:10:51.831Z,44.30
2019-03-21T02:13:21.217Z,44.70
2019-03-21T02:15:50.838Z,44.90
2019-03-21T02:18:20.326Z,44.80
2019-03-21T02:20:49.724Z,45.00
2019-03-21T02:23:19.073Z,44.80
2019-03-21T02:25:48.453Z,44.60
2019-03-21T02:28:19.420Z,44.50
2019-03-21T02:30:53.362Z,44.40
2019-03-21T02:33:34.663Z,44.40
2019-03-21T02:36:12.168Z,45.80
2019-03-21T02:38:41.556Z,47.00
2019-03-21T02:41:13.508Z,47.90
2019-03-21T02:43:42.995Z,48.70
2019-03-21T02:46:12.374Z,49.20
2019-03-21T02:48:41.849Z,49.60
2019-03-21T02:51:11.246Z,50.20
2019-03-21T02:53:40.724Z,51.00
2019-03-21T02:56:16.610Z,51.00
2019-03-21T02:58:46.066Z,50.70
2019-03-21T03:01:15.623Z,51.00
2019-03-21T03:03:44.961Z,50.70
2019-03-21T03:06:14.508Z,50.80
2019-03-21T03:08:44.001Z,51.00
2019-03-21T03:11:21.749Z,51.50
2019-03-21T03:13:51.712Z,51.20
2019-03-21T03:16:22.842Z,50.90
2019-03-21T03:18:52.363Z,51.00
2019-03-21T03:21:21.707Z,51.30
2019-03-21T03:23:51.170Z,51.50
2019-03-21T03:26:20.597Z,51.60
2019-03-21T03:28:50.055Z,51.80
2019-03-21T03:31:19.685Z,52.50
2019-03-21T03:33:49.161Z,52.60
2019-03-21T03:36:18.599Z,53.10
2019-03-21T03:38:48.074Z,52.00
2019-03-21T03:41:19.425Z,51.10
2019-03-21T03:43:48.806Z,51.30
2019-03-21T03:46:19.762Z,51.50
2019-03-21T03:48:49.167Z,51.60
2019-03-21T03:51:18.502Z,51.90
2019-03-21T03:53:48.978Z,52.40
2019-03-21T03:56:18.519Z,52.90
2019-03-21T03:58:57.272Z,53.50
2019-03-21T04:01:26.671Z,54.40
2019-03-21T04:03:56.226Z,54.50
2019-03-21T04:06:25.728Z,54.90
2019-03-21T04:08:55.263Z,55.90
2019-03-21T04:11:24.715Z,56.50
2019-03-21T04:13:54.043Z,57.40
2019-03-21T04:16:23.521Z,57.00
2019-03-21T04:18:54.008Z,57.20
2019-03-21T04:21:23.430Z,57.50
2019-03-21T04:23:52.913Z,57.80
2019-03-21T04:26:28.018Z,58.10
2019-03-21T04:28:57.416Z,58.30
2019-03-21T04:31:26.895Z,58.40
2019-03-21T04:34:00.320Z,58.50
2019-03-21T04:36:29.731Z,58.50
2019-03-21T04:38:59.128Z,59.20
2019-03-21T04:41:28.655Z,58.80
2019-03-21T04:43:58.164Z,58.90
2019-03-21T04:46:28.815Z,59.20
2019-03-21T04:48:58.214Z,59.40
2019-03-21T04:51:27.801Z,59.70
2019-03-21T04:53:57.158Z,60.00
2019-03-21T04:56:26.626Z,59.70
2019-03-21T04:58:58.166Z,60.10
2019-03-21T05:01:27.496Z,60.50
2019-03-21T05:03:57.040Z,60.80
2019-03-21T05:06:27.516Z,61.30
2019-03-21T05:08:57.075Z,61.30
2019-03-21T05:11:26.573Z,61.00
2019-03-21T05:13:57.090Z,61.00
2019-03-21T05:16:26.590Z,61.40
2019-03-21T05:18:59.430Z,61.40
2019-03-21T05:21:30.597Z,61.40
2019-03-21T05:23:59.944Z,61.60
2019-03-21T05:26:29.419Z,61.50
2019-03-21T05:29:00.503Z,61.30
2019-03-21T05:31:35.150Z,61.30
2019-03-21T05:34:05.513Z,61.10
2019-03-21T05:36:37.752Z,60.90
2019-03-21T05:39:09.719Z,60.90
2019-03-21T05:41:39.112Z,61.10
2019-03-21T05:44:11.728Z,61.00
2019-03-21T05:46:41.235Z,61.50
2019-03-21T05:49:10.846Z,61.60
2019-03-21T05:51:41.401Z,61.60
2019-03-21T05:54:10.896Z,61.80
2019-03-21T05:56:40.365Z,61.70
2019-03-21T05:59:10.813Z,61.50
2019-03-21T06:01:40.611Z,61.30
2019-03-21T06:04:10.150Z,61.40
2019-03-21T06:06:48.569Z,61.40
2019-03-21T06:09:21.816Z,61.30
2019-03-21T06:11:54.482Z,61.00
2019-03-21T06:14:24.025Z,60.70
2019-03-21T06:16:53.578Z,61.80
2019-03-21T06:19:32.334Z,61.40
2019-03-21T06:22:13.849Z,61.60
2019-03-21T06:24:52.278Z,61.40
2019-03-21T06:27:26.813Z,61.30
2019-03-21T06:29:56.474Z,60.90
2019-03-21T06:32:27.117Z,60.70
2019-03-21T06:34:56.990Z,60.50
2019-03-21T06:37:28.635Z,60.00
2019-03-21T06:39:57.935Z,60.80
2019-03-21T06:42:27.356Z,59.70
2019-03-21T06:44:57.891Z,58.90
2019-03-21T06:47:27.313Z,58.80
2019-03-21T06:49:58.407Z,58.80
2019-03-21T06:52:27.895Z,59.00
2019-03-21T06:54:59.741Z,59.30
2019-03-21T06:57:28.803Z,59.60
2019-03-21T06:59:59.345Z,59.40
2019-03-21T07:02:28.770Z,59.30
2019-03-21T07:04:58.220Z,59.40
2019-03-21T07:07:27.657Z,59.90
2019-03-21T07:09:57.119Z,59.20
2019-03-21T07:12:26.601Z,58.00
2019-03-21T07:14:56.023Z,57.50
2019-03-21T07:17:25.472Z,56.90
2019-03-21T07:19:54.958Z,56.60
2019-03-21T07:22:24.404Z,56.60
2019-03-21T07:24:53.803Z,56.50
2019-03-21T07:27:24.981Z,56.70
2019-03-21T07:29:54.326Z,56.50
2019-03-21T07:32:33.072Z,54.80
2019-03-21T07:34:54.735Z,54.70
2019-03-21T07:37:24.118Z,55.00
2019-03-21T07:39:53.570Z,53.80
2019-03-21T07:42:22.975Z,52.80
2019-03-21T07:44:52.320Z,52.50
2019-03-21T07:47:21.725Z,51.40
2019-03-21T07:49:51.118Z,49.80
2019-03-21T07:52:20.573Z,48.80
2019-03-21T07:54:50.043Z,46.50
2019-03-21T07:57:19.438Z,45.60
2019-03-21T07:59:49.995Z,45.20
2019-03-21T08:02:19.506Z,44.20
2019-03-21T08:04:48.814Z,42.90
2019-03-21T08:07:18.309Z,41.10
2019-03-21T08:09:47.863Z,42.70
2019-03-21T08:12:17.411Z,42.50
2019-03-21T08:14:46.934Z,42.40
2019-03-21T08:17:16.451Z,41.50
2019-03-21T08:19:45.942Z,42.70
2019-03-21T08:22:15.256Z,40.20
2019-03-21T08:24:44.589Z,36.50
2019-03-21T08:27:14.074Z,37.30
2019-03-21T08:29:43.487Z,37.20
2019-03-21T08:32:12.961Z,35.10
2019-03-21T08:34:42.370Z,35.00
2019-03-21T08:37:12.992Z,34.40
2019-03-21T08:39:42.452Z,33.90
2019-03-21T08:42:11.841Z,33.70
2019-03-21T08:44:41.255Z,33.50
2019-03-21T08:47:14.636Z,33.60
2019-03-21T08:49:44.140Z,33.50
2019-03-21T08:52:13.614Z,33.90
2019-03-21T08:54:43.098Z,33.20
2019-03-21T08:57:12.644Z,32.00
2019-03-21T08:59:42.073Z,31.50
2019-03-21T09:02:11.475Z,31.50
2019-03-21T09:04:43.017Z,31.50
2019-03-21T09:07:12.418Z,31.10
2019-03-21T09:09:41.934Z,31.60
2019-03-21T09:12:11.343Z,31.40
2019-03-21T09:14:40.950Z,30.70
2019-03-21T09:17:10.356Z,30.00
2019-03-21T09:19:39.916Z,29.90
2019-03-21T09:22:09.482Z,29.70
2019-03-21T09:24:39.017Z,29.80
2019-03-21T09:27:08.427Z,29.80
2019-03-21T09:29:37.894Z,29.60
2019-03-21T09:32:07.423Z,29.80
2019-03-21T09:34:36.858Z,29.10
2019-03-21T09:37:06.194Z,28.70
2019-03-21T09:39:35.657Z,29.00
2019-03-21T09:42:06.706Z,29.20
2019-03-21T09:44:36.187Z,29.30
2019-03-21T09:47:05.638Z,29.40
2019-03-21T09:49:35.118Z,28.80
2019-03-21T09:52:04.664Z,28.70
2019-03-21T09:54:38.324Z,28.50
2019-03-21T09:57:27.266Z,28.50
2019-03-21T09:59:56.886Z,28.40
2019-03-21T10:02:28.022Z,28.30
2019-03-21T10:04:57.477Z,27.90
2019-03-21T10:07:26.946Z,28.20
2019-03-21T10:09:56.358Z,28.20
2019-03-21T10:12:26.892Z,27.70
2019-03-21T10:14:56.374Z,27.20
2019-03-21T10:17:26.509Z,27.80
2019-03-21T10:19:55.934Z,27.20
2019-03-21T10:22:25.324Z,27.40
2019-03-21T10:24:54.743Z,26.90
2019-03-21T10:27:24.074Z,27.20
2019-03-21T10:29:53.714Z,26.60
2019-03-21T10:32:23.182Z,26.60
2019-03-21T10:34:52.657Z,26.50
2019-03-21T10:37:22.150Z,26.60
2019-03-21T10:39:51.589Z,26.40
2019-03-21T10:42:21.064Z,26.30
2019-03-21T10:44:50.607Z,27.30
2019-03-21T10:47:20.056Z,26.90
2019-03-21T10:49:50.785Z,25.70
2019-03-21T10:52:20.350Z,26.40
2019-03-21T10:54:49.822Z,26.40
2019-03-21T10:57:19.295Z,26.30
2019-03-21T10:59:48.789Z,26.40
2019-03-21T11:02:18.242Z,25.80
2019-03-21T11:04:47.763Z,25.30
2019-03-21T11:07:16.309Z,25.60
2019-03-21T11:09:45.710Z,25.10
2019-03-21T11:12:15.209Z,26.10
2019-03-21T11:14:44.820Z,25.30
2019-03-21T11:17:15.967Z,24.90
2019-03-21T11:19:45.529Z,25.00
2019-03-21T11:22:14.934Z,25.20
2019-03-21T11:24:44.269Z,24.80
2019-03-21T11:27:13.877Z,24.60
2019-03-21T11:29:43.350Z,24.50
2019-03-21T11:32:12.897Z,24.50
2019-03-21T11:34:42.369Z,24.10
2019-03-21T11:37:11.853Z,24.10
2019-03-21T11:39:41.335Z,24.30
2019-03-21T11:42:10.810Z,24.30
2019-03-21T11:44:40.367Z,24.20
2019-03-21T11:47:09.860Z,24.30
2019-03-21T11:49:39.285Z,24.30
2019-03-21T11:52:17.705Z,24.80
2019-03-21T11:54:39.662Z,24.30
2019-03-21T11:57:09.066Z,24.40
2019-03-21T11:59:51.084Z,24.30
2019-03-21T12:02:11.260Z,24.00
2019-03-21T12:04:40.811Z,23.50
2019-03-21T12:07:10.981Z,23.60
2019-03-21T12:09:40.381Z,24.10
2019-03-21T12:12:11.001Z,24.40
2019-03-21T12:14:40.459Z,23.50
2019-03-21T12:17:09.890Z,23.90
2019-03-21T12:19:39.362Z,23.20
2019-03-21T12:22:08.766Z,23.30
2019-03-21T12:24:38.174Z,23.50
2019-03-21T12:27:07.683Z,23.40
2019-03-21T12:29:37.157Z,23.60
2019-03-21T12:32:06.562Z,23.50
2019-03-21T12:34:35.961Z,23.10
2019-03-21T12:37:07.058Z,23.40
2019-03-21T12:39:36.563Z,23.20
2019-03-21T12:42:06.152Z,23.50
2019-03-21T12:44:36.624Z,23.30
2019-03-21T12:47:06.033Z,24.80
2019-03-21T12:49:35.434Z,24.50
2019-03-21T12:52:04.921Z,24.80
2019-03-21T12:54:34.358Z,24.50
2019-03-21T12:57:03.898Z,23.60
2019-03-21T12:59:33.340Z,22.80
2019-03-21T13:02:02.844Z,23.80
2019-03-21T13:04:32.404Z,24.10
2019-03-21T13:07:01.794Z,24.80
2019-03-21T13:09:31.262Z,25.10
2019-03-21T13:12:00.674Z,24.40
2019-03-21T13:14:30.011Z,23.50
2019-03-21T13:16:59.377Z,23.20
2019-03-21T13:19:28.911Z,22.80
2019-03-21T13:21:58.307Z,21.90
2019-03-21T13:24:27.873Z,21.40
2019-03-21T13:27:00.178Z,18.90
2019-03-21T13:29:29.912Z,17.60
2019-03-21T13:31:59.343Z,18.40
2019-03-21T13:34:28.976Z,17.50
2019-03-21T13:36:58.550Z,16.10
2019-03-21T13:39:28.032Z,15.20
2019-03-21T13:41:57.500Z,14.90
2019-03-21T13:44:29.045Z,15.90
2019-03-21T13:46:58.462Z,16.10
2019-03-21T13:49:28.004Z,15.20
2019-03-21T13:51:57.556Z,14.20
2019-03-21T13:54:26.942Z,13.70
2019-03-21T13:56:56.350Z,14.80
2019-03-21T13:59:25.746Z,15.00
2019-03-21T14:01:55.196Z,14.50
2019-03-21T14:04:24.470Z,14.00
2019-03-21T14:06:53.796Z,13.60
2019-03-21T14:09:23.131Z,13.40
2019-03-21T14:11:52.494Z,14.80
2019-03-21T14:14:21.887Z,13.60
2019-03-21T14:16:51.350Z,13.50
2019-03-21T14:19:20.825Z,13.60
2019-03-21T14:21:50.219Z,12.90
2019-03-21T14:24:19.680Z,12.60
2019-03-21T14:26:49.062Z,12.30
2019-03-21T14:29:18.904Z,13.70
2019-03-21T14:31:48.349Z,15.50
2019-03-21T14:34:17.666Z,13.80
2019-03-21T14:36:46.982Z,13.00
2019-03-21T14:39:16.398Z,12.30
2019-03-21T14:41:45.716Z,13.10
2019-03-21T14:44:15.048Z,12.80
2019-03-21T14:46:44.488Z,12.50
2019-03-21T14:49:15.029Z,12.40
2019-03-21T14:51:44.468Z,12.80
2019-03-21T14:54:13.993Z,11.80
2019-03-21T14:56:43.504Z,11.70
2019-03-21T14:59:12.916Z,12.30
2019-03-21T15:01:42.472Z,12.20
2019-03-21T15:04:11.946Z,12.10
2019-03-21T15:06:41.573Z,13.40
2019-03-21T15:09:11.121Z,12.80
2019-03-21T15:11:43.448Z,12.60
2019-03-21T15:14:13.144Z,12.30
2019-03-21T15:16:42.488Z,11.80
2019-03-21T15:19:12.031Z,11.70
2019-03-21T15:21:41.550Z,12.20
2019-03-21T15:24:11.022Z,13.90
2019-03-21T15:26:40.454Z,13.50
2019-03-21T15:29:09.999Z,13.30
2019-03-21T15:31:39.499Z,14.30
2019-03-21T15:34:08.973Z,13.70
2019-03-21T15:36:42.807Z,13.80
2019-03-21T15:39:12.307Z,13.30
2019-03-21T15:41:41.719Z,13.10
2019-03-21T15:44:11.287Z,13.00
2019-03-21T15:46:40.757Z,12.80
2019-03-21T15:49:10.174Z,12.30
2019-03-21T15:51:39.597Z,12.60
2019-03-21T15:54:09.019Z,12.90
2019-03-21T15:56:38.565Z,13.20
2019-03-21T15:59:08.110Z,13.50
2019-03-21T16:01:38.526Z,13.50
2019-03-21T16:04:07.998Z,13.40
2019-03-21T16:06:37.401Z,13.30
2019-03-21T16:09:07.397Z,12.80
2019-03-21T16:11:36.862Z,13.50
2019-03-21T16:14:06.277Z,13.60
2019-03-21T16:16:35.617Z,13.50
2019-03-21T16:19:06.029Z,14.10
2019-03-21T16:21:35.569Z,15.30
2019-03-21T16:24:05.879Z,15.70
2019-03-21T16:26:36.801Z,16.00
2019-03-21T16:29:06.478Z,16.50
2019-03-21T16:31:36.020Z,18.30
2019-03-21T16:34:05.428Z,19.20
2019-03-21T16:36:34.974Z,19.90
2019-03-21T16:39:06.413Z,20.10
2019-03-21T16:41:36.805Z,21.30
2019-03-21T16:44:06.215Z,22.10
2019-03-21T16:46:35.793Z,22.60
2019-03-21T16:49:05.142Z,23.20
2019-03-21T16:51:34.706Z,23.60
2019-03-21T16:54:16.137Z,23.70
2019-03-21T16:56:35.352Z,24.00
2019-03-21T16:59:04.820Z,23.80
2019-03-21T17:01:34.378Z,23.90
2019-03-21T17:04:03.793Z,24.40
2019-03-21T17:06:33.219Z,24.50
2019-03-21T17:09:02.679Z,25.00
2019-03-21T17:11:32.464Z,25.10
2019-03-21T17:14:03.442Z,25.30
2019-03-21T17:16:32.770Z,26.40
2019-03-21T17:19:02.505Z,26.90
2019-03-21T17:21:32.175Z,27.50
2019-03-21T17:24:02.937Z,28.20
2019-03-21T17:26:32.645Z,28.60
2019-03-21T17:29:03.510Z,28.80
2019-03-21T17:31:33.177Z,29.30
2019-03-21T17:34:04.100Z,29.70
2019-03-21T17:36:34.075Z,30.00
2019-03-21T17:39:05.273Z,30.10
2019-03-21T17:41:34.867Z,30.30
2019-03-21T17:44:04.726Z,30.70
2019-03-21T17:46:34.466Z,31.10
2019-03-21T17:49:04.334Z,31.50
2019-03-21T17:51:34.076Z,31.90
2019-03-21T17:54:03.797Z,31.80
2019-03-21T17:56:33.519Z,32.10
2019-03-21T17:59:03.285Z,32.10
2019-03-21T18:01:32.991Z,32.30
2019-03-21T18:04:02.715Z,32.50
2019-03-21T18:06:32.401Z,32.80
2019-03-21T18:09:01.949Z,33.20
2019-03-21T18:11:33.049Z,33.60
2019-03-21T18:14:02.773Z,33.90
2019-03-21T18:16:32.442Z,34.20
2019-03-21T18:19:02.288Z,35.00
2019-03-21T18:21:32.940Z,34.90
2019-03-21T18:24:02.615Z,35.20
2019-03-21T18:26:33.474Z,35.30
2019-03-21T18:29:03.076Z,35.80
2019-03-21T18:31:32.905Z,36.20
2019-03-21T18:34:02.538Z,36.10
2019-03-21T18:36:32.292Z,36.10
2019-03-21T18:39:04.077Z,36.10
2019-03-21T18:41:33.821Z,36.30
2019-03-21T18:44:03.644Z,36.60
2019-03-21T18:46:33.232Z,37.30
2019-03-21T18:49:02.993Z,36.40
2019-03-21T18:51:32.754Z,36.50
2019-03-21T18:54:02.496Z,36.90
2019-03-21T18:56:33.206Z,36.90
2019-03-21T18:59:02.847Z,37.00
2019-03-21T19:01:32.527Z,36.70
2019-03-21T19:04:02.341Z,37.10
2019-03-21T19:06:32.066Z,37.20
2019-03-21T19:09:01.588Z,37.70
2019-03-21T19:11:31.674Z,37.90
2019-03-21T19:14:01.259Z,38.00
2019-03-21T19:16:32.037Z,37.90
2019-03-21T19:19:01.997Z,38.10
2019-03-21T19:21:31.827Z,38.40
2019-03-21T19:24:01.589Z,38.80
2019-03-21T19:26:31.182Z,39.30
2019-03-21T19:29:00.996Z,39.50
2019-03-21T19:31:30.757Z,39.80
2019-03-21T19:34:00.569Z,40.30
2019-03-21T19:36:30.226Z,40.40
2019-03-21T19:38:59.911Z,40.90
2019-03-21T19:41:29.648Z,40.70
2019-03-21T19:43:59.277Z,41.40
2019-03-21T19:46:28.932Z,41.20
2019-03-21T19:48:58.722Z,41.60
2019-03-21T19:51:28.464Z,42.00
2019-03-21T19:53:58.222Z,42.50
2019-03-21T19:56:29.281Z,42.70
2019-03-21T19:59:01.098Z,42.50
2019-03-21T20:01:30.335Z,42.40
2019-03-21T20:04:00.057Z,42.70
2019-03-21T20:06:29.670Z,42.60
2019-03-21T20:08:59.394Z,43.00
2019-03-21T20:11:29.104Z,43.30
2019-03-21T20:13:58.891Z,43.40
2019-03-21T20:16:28.646Z,43.30
2019-03-21T20:18:58.323Z,43.50
2019-03-21T20:21:28.120Z,43.50
2019-03-21T20:23:57.793Z,43.80
2019-03-21T20:26:27.602Z,44.60
2019-03-21T20:28:58.503Z,45.10
2019-03-21T20:31:28.965Z,45.50
2019-03-21T20:33:58.625Z,45.80
2019-03-21T20:36:28.281Z,45.70
2019-03-21T20:38:59.576Z,45.70
2019-03-21T20:41:29.306Z,45.80
2019-03-21T20:43:59.060Z,45.80
2019-03-21T20:46:30.483Z,45.90
2019-03-21T20:48:59.016Z,46.00
2019-03-21T20:51:28.755Z,46.30
2019-03-21T20:53:58.433Z,46.50
2019-03-21T20:56:28.242Z,46.70
2019-03-21T20:58:58.003Z,46.70
2019-03-21T21:01:27.813Z,46.70
2019-03-21T21:03:58.570Z,47.10
2019-03-21T21:06:28.374Z,47.40
2019-03-21T21:08:58.270Z,47.60
2019-03-21T21:11:27.940Z,47.80
2019-03-21T21:13:57.768Z,47.40
2019-03-21T21:16:27.578Z,47.20
2019-03-21T21:18:57.378Z,47.60
2019-03-21T21:21:28.638Z,48.00
2019-03-21T21:23:58.453Z,48.20
2019-03-21T21:26:28.185Z,48.40
2019-03-21T21:28:57.923Z,48.70
2019-03-21T21:31:27.605Z,48.90
2019-03-21T21:33:57.402Z,49.00
2019-03-21T21:36:27.073Z,49.50
2019-03-21T21:38:56.815Z,49.70
2019-03-21T21:41:26.628Z,50.10
2019-03-21T21:43:56.649Z,50.20
2019-03-21T21:46:26.415Z,50.30
2019-03-21T21:48:56.150Z,50.40
2019-03-21T21:51:25.856Z,50.60
2019-03-21T21:53:55.661Z,50.50
2019-03-21T21:56:25.404Z,51.10
2019-03-21T21:58:55.002Z,51.10
2019-03-21T22:01:24.731Z,51.50
2019-03-21T22:04:04.113Z,51.70
2019-03-21T22:06:25.814Z,51.20
2019-03-21T22:08:55.514Z,51.00
2019-03-21T22:11:25.251Z,50.90
2019-03-21T22:13:54.997Z,50.70
2019-03-21T22:16:24.741Z,50.60
2019-03-21T22:18:54.426Z,50.40
2019-03-21T22:21:24.084Z,50.70
2019-03-21T22:23:53.774Z,50.60
2019-03-21T22:26:29.511Z,50.40
2019-03-21T22:28:54.926Z,50.80
2019-03-21T22:31:25.985Z,51.10
2019-03-21T22:33:55.783Z,51.00
2019-03-21T22:36:25.525Z,51.40
2019-03-21T22:38:55.257Z,51.70
2019-03-21T22:41:25.001Z,52.20
2019-03-21T22:43:54.674Z,52.40
2019-03-21T22:46:25.973Z,52.60
2019-03-21T22:48:55.701Z,52.70
2019-03-21T22:51:25.437Z,52.80
2019-03-21T22:53:55.098Z,52.70
2019-03-21T22:56:24.695Z,53.70
2019-03-21T22:58:54.209Z,53.30
2019-03-21T23:01:23.877Z,52.80
2019-03-21T23:03:53.591Z,52.30
2019-03-21T23:06:23.255Z,52.30
2019-03-21T23:08:52.987Z,52.40
2019-03-21T23:11:22.697Z,52.50
2019-03-21T23:13:54.000Z,52.20
2019-03-21T23:16:23.510Z,52.30
2019-03-21T23:18:53.229Z,52.40
2019-03-21T23:21:24.488Z,52.60
2019-03-21T23:23:54.226Z,53.40
2019-03-21T23:26:23.946Z,52.70
2019-03-21T23:28:53.715Z,52.80
2019-03-21T23:31:24.547Z,52.80
2019-03-21T23:33:54.281Z,52.70
2019-03-21T23:36:23.933Z,53.70
2019-03-21T23:38:53.690Z,53.20
2019-03-21T23:41:23.404Z,53.40
2019-03-21T23:43:53.087Z,53.60
2019-03-21T23:46:22.642Z,53.80
2019-03-21T23:48:53.312Z,53.90
2019-03-21T23:51:23.046Z,54.10
2019-03-21T23:53:52.693Z,54.20
2019-03-21T23:56:22.494Z,54.50
2019-03-21T23:58:52.204Z,54.60
